77.0°F
Current conditions from King Hill
Updated every 5 minutes
 
  Saturday July 26, 2014

Station Historical Data
Daily Summary for August 09, 2012 Units:  Metric    English   Both
« Previous Day
Next Day »
Daily Weekly Monthly Yearly Custom
  High: Low: Average:
Temperature: 27.2 °C 15.6 °C 20.6 °C
Dew Point: 21.4 °C 14.5 °C 18.3 °C
Humidity: 96% 65% 87%
Wind Speed: 8km/h 0km/h 3.4km/h
Wind Gust: 17.7km/h - -
Wind- - SSW
Pressure: 1012.8 hPa 1009.7 hPa -
Precipitation: 6.9 mm    
Historical Graphs
 
 
Tabular Data for August 09, 2012
Time Temperature Dew Point Pressure Wind Wind Speed Wind Gust Humidity Daily Rainfall
00:04 16.2 °C 14.5 °C 1011.7 hPa Calm     90% 0 mm
00:09 16.4 °C 14.9 °C 1011.7 hPa Calm   1.6 km/h 91% 0 mm
00:14 16.7 °C 15.2 °C 1011.7 hPa Calm   1.6 km/h 91% 0 mm
00:19 16.8 °C 15.3 °C 1011.7 hPa Calm     91% 0 mm
00:24 16.8 °C 15.3 °C 1011.7 hPa Calm     91% 0 mm
00:29 16.8 °C 15.3 °C 1011.7 hPa Calm     91% 0 mm
00:34 16.9 °C 15.4 °C 1011.7 hPa Calm     91% 0 mm
00:39 16.9 °C 15.4 °C 1011.7 hPa Calm     91% 0 mm
00:44 16.9 °C 15.4 °C 1012.1 hPa Calm     91% 0 mm
00:49 16.9 °C 15.4 °C 1011.7 hPa Calm     91% 0 mm
00:54 16.9 °C 15.4 °C 1011.7 hPa Calm     91% 0 mm
00:59 16.9 °C 15.4 °C 1011.7 hPa Calm     91% 0 mm
01:04 16.9 °C 15.4 °C 1011.7 hPa Calm     91% 0 mm
01:09 16.8 °C 15.3 °C 1011.7 hPa Calm     91% 0 mm
01:14 16.9 °C 15.4 °C 1011.7 hPa Calm     91% 0 mm
01:19 16.9 °C 15.4 °C 1011.7 hPa Calm     91% 0 mm
01:24 16.9 °C 15.4 °C 1011.7 hPa Calm     91% 0 mm
01:29 16.9 °C 15.2 °C 1011.7 hPa Calm     90% 0 mm
01:34 16.8 °C 15.3 °C 1011.7 hPa Calm     91% 0 mm
01:39 16.7 °C 15.2 °C 1011.7 hPa Calm     91% 0 mm
01:44 16.6 °C 14.9 °C 1011.7 hPa Calm     90% 0 mm
01:49 16.5 °C 14.8 °C 1011.7 hPa Calm     90% 0 mm
01:54 16.4 °C 14.9 °C 1011.7 hPa Calm     91% 0 mm
01:59 16.4 °C 14.9 °C 1011.7 hPa Calm     91% 0 mm
02:04 16.3 °C 14.9 °C 1011.4 hPa Calm     91% 0 mm
02:14 16.4 °C 14.9 °C 1011.7 hPa Calm     91% 0 mm
02:19 16.3 °C 14.9 °C 1011.4 hPa Calm     91% 0 mm
02:24 16.6 °C 15.5 °C 1011.4 hPa Calm   1.6 km/h 93% 0 mm
02:29 16.6 °C 15.3 °C 1011.4 hPa Calm   1.6 km/h 92% 0 mm
02:39 16.1 °C 14.8 °C 1011.7 hPa Calm   3.2 km/h 92% 0 mm
02:44 15.9 °C 14.6 °C 1011.4 hPa Calm   1.6 km/h 92% 0 mm
02:49 16 °C 14.7 °C 1011.4 hPa Calm     92% 0 mm
02:54 16.1 °C 14.8 °C 1011.4 hPa Calm     92% 0 mm
02:59 16.1 °C 14.8 °C 1011.4 hPa Calm     92% 0 mm
03:04 16.1 °C 15 °C 1011.4 hPa Calm     93% 0 mm
03:09 16.3 °C 15.2 °C 1011.4 hPa Calm     93% 0 mm
03:14 16.3 °C 15.2 °C 1011.4 hPa Calm     93% 0 mm
03:19 16.2 °C 15.1 °C 1011.4 hPa Calm     93% 0 mm
03:24 16.1 °C 14.9 °C 1011.4 hPa Calm     93% 0 mm
03:29 15.9 °C 14.8 °C 1011.4 hPa Calm     93% 0 mm
03:34 15.8 °C 14.7 °C 1011.4 hPa Calm     93% 0 mm
03:39 15.8 °C 14.7 °C 1011.4 hPa Calm     93% 0 mm
03:44 15.7 °C 14.6 °C 1011.4 hPa Calm     93% 0 mm
03:49 15.7 °C 14.6 °C 1011.4 hPa Calm     93% 0 mm
03:54 15.8 °C 14.7 °C 1011.4 hPa Calm   3.2 km/h 93% 0 mm
03:59 15.9 °C 15 °C 1011.4 hPa Calm   3.2 km/h 94% 0 mm
04:04 16.2 °C 15.4 °C 1011.4 hPa Calm   4.8 km/h 95% 0 mm
04:09 16.3 °C 15.6 °C 1011.4 hPa Calm   4.8 km/h 95% 0 mm
04:14 16.4 °C 15.7 °C 1011.4 hPa Calm   4.8 km/h 95% 0 mm
04:19 16.4 °C 15.7 °C 1011.4 hPa Calm   4.8 km/h 95% 0 mm
04:24 16.4 °C 15.7 °C 1011.4 hPa Calm   4.8 km/h 95% 0 mm
04:29 16.4 °C 15.7 °C 1011.4 hPa Calm   4.8 km/h 95% 0 mm
04:39 16.5 °C 15.7 °C 1011.4 hPa Calm   4.8 km/h 95% 0 mm
04:44 16.5 °C 15.7 °C 1011.4 hPa Calm   4.8 km/h 95% 0 mm
04:49 16.6 °C 15.6 °C 1011.4 hPa Calm     94% 0 mm
04:54 16.4 °C 15.5 °C 1011.4 hPa Calm     94% 0 mm
04:59 16.3 °C 15.4 °C 1011.4 hPa Calm     94% 0 mm
05:09 16.2 °C 15.2 °C 1011.4 hPa Calm     94% 0 mm
05:14 16.1 °C 15.1 °C 1011.7 hPa Calm     94% 0 mm
05:19 15.9 °C 15 °C 1011.7 hPa Calm     94% 0 mm
05:29 15.8 °C 14.8 °C 1011.7 hPa Calm     94% 0 mm
05:34 15.8 °C 14.9 °C 1011.7 hPa Calm     94% 0 mm
05:39 15.8 °C 14.9 °C 1011.7 hPa Calm     94% 0 mm
05:44 15.8 °C 14.9 °C 1011.7 hPa Calm     94% 0 mm
05:49 15.8 °C 14.9 °C 1011.7 hPa Calm     94% 0 mm
05:54 15.8 °C 14.8 °C 1011.7 hPa Calm     94% 0 mm
05:59 15.7 °C 14.9 °C 1011.7 hPa Calm     95% 0 mm
06:04 15.7 °C 14.9 °C 1011.7 hPa Calm     95% 0 mm
06:09 15.7 °C 14.9 °C 1011.7 hPa Calm     95% 0 mm
06:14 15.7 °C 14.9 °C 1011.7 hPa Calm     95% 0 mm
06:19 15.6 °C 14.8 °C 1012.1 hPa Calm     95% 0 mm
06:24 15.6 °C 14.8 °C 1012.1 hPa Calm     95% 0 mm
06:29 15.6 °C 14.8 °C 1012.1 hPa Calm     95% 0 mm
06:34 15.7 °C 14.9 °C 1012.1 hPa Calm     95% 0 mm
06:44 15.9 °C 15.2 °C 1012.1 hPa Calm     95% 0 mm
06:49 16.1 °C 15.3 °C 1012.4 hPa Calm     95% 0 mm
06:54 16.3 °C 15.5 °C 1012.4 hPa Calm     95% 0 mm
06:59 16.5 °C 15.7 °C 1012.4 hPa Calm     95% 0 mm
07:04 16.7 °C 15.9 °C 1012.4 hPa Calm     95% 0 mm
07:09 17.1 °C 16.4 °C 1012.4 hPa Calm     96% 0 mm
07:14 17.4 °C 16.7 °C 1012.4 hPa Calm     96% 0 mm
07:19 17.6 °C 16.9 °C 1012.4 hPa Calm     96% 0 mm
07:24 17.8 °C 17.1 °C 1012.4 hPa Calm     96% 0 mm
07:29 18 °C 17.3 °C 1012.4 hPa Calm     96% 0 mm
07:34 18.3 °C 17.6 °C 1012.8 hPa Calm     96% 0 mm
07:44 18.7 °C 18.1 °C 1012.8 hPa Calm     96% 0 mm
07:49 19.1 °C 18.4 °C 1012.8 hPa Calm     96% 0 mm
07:59 18.9 °C 18.3 °C 1012.8 hPa SW 1.6 km/h 8 km/h 96% 0 mm
08:04 19 °C 18.3 °C 1012.8 hPa SSW 3.2 km/h 11.3 km/h 96% 0 mm
08:09 19.2 °C 18.6 °C 1012.4 hPa SSW 1.6 km/h 11.3 km/h 96% 0 mm
08:14 19.4 °C 18.6 °C 1012.4 hPa Calm   9.7 km/h 95% 0 mm
08:19 19.7 °C 18.7 °C 1012.4 hPa Calm   8 km/h 94% 0 mm
08:24 19.9 °C 18.6 °C 1012.4 hPa Calm   1.6 km/h 92% 0 mm
08:29 20.1 °C 18.4 °C 1012.4 hPa Calm   4.8 km/h 90% 0 mm
08:34 20.3 °C 18.3 °C 1012.4 hPa Calm   4.8 km/h 88% 0 mm
08:39 20.4 °C 17.8 °C 1012.4 hPa SSW 3.2 km/h 9.7 km/h 85% 0 mm
08:44 20.5 °C 17.9 °C 1012.4 hPa Calm   9.7 km/h 85% 0 mm
08:49 20.7 °C 18.1 °C 1012.4 hPa SSW 4.8 km/h 12.9 km/h 85% 0 mm
08:54 21.1 °C 18.3 °C 1012.4 hPa SSW 6.4 km/h 12.9 km/h 84% 0 mm
08:59 21.5 °C 18.3 °C 1012.4 hPa South 6.4 km/h 12.9 km/h 82% 0 mm
09:04 21.9 °C 18.7 °C 1012.1 hPa SSW 3.2 km/h 12.9 km/h 82% 0 mm
09:09 22.3 °C 18.9 °C 1012.1 hPa SW 8 km/h 16.1 km/h 81% 0 mm
09:14 22.6 °C 19 °C 1012.1 hPa SW 6.4 km/h 17.7 km/h 80% 0 mm
09:19 22.9 °C 19.1 °C 1012.1 hPa SSW 4.8 km/h 17.7 km/h 79% 0 mm
09:24 23.2 °C 19.4 °C 1012.1 hPa WSW 1.6 km/h 14.5 km/h 79% 0 mm
09:29 23.4 °C 19.4 °C 1012.4 hPa SSW 6.4 km/h 16.1 km/h 78% 0 mm
09:34 23.6 °C 19.6 °C 1012.4 hPa West 3.2 km/h 16.1 km/h 78% 0 mm
09:39 23.8 °C 19.5 °C 1012.4 hPa SW 6.4 km/h 17.7 km/h 77% 0 mm
09:44 23.4 °C 19.2 °C 1012.4 hPa SW 6.4 km/h 17.7 km/h 77% 0 mm
09:49 23.2 °C 19.2 °C 1012.4 hPa WSW 3.2 km/h 14.5 km/h 78% 0 mm
09:54 22.8 °C 18.9 °C 1012.4 hPa Calm   12.9 km/h 79% 0 mm
09:59 22.5 °C 18.9 °C 1012.4 hPa Calm   12.9 km/h 80% 0 mm
10:04 22.4 °C 18.8 °C 1012.4 hPa SW 3.2 km/h 11.3 km/h 80% 0 mm
10:09 22.3 °C 18.9 °C 1012.4 hPa SW 1.6 km/h 8 km/h 81% 0 mm
10:14 22.1 °C 18.7 °C 1012.4 hPa SW 1.6 km/h 8 km/h 81% 0 mm
10:19 21.9 °C 18.7 °C 1012.4 hPa Calm   8 km/h 82% 0 mm
10:24 21.9 °C 18.7 °C 1012.4 hPa Calm   6.4 km/h 82% 0 mm
10:29 21.9 °C 18.7 °C 1012.4 hPa Calm   1.6 km/h 82% 0 mm
10:34 21.9 °C 18.9 °C 1012.4 hPa Calm   1.6 km/h 83% 0 mm
10:39 21.9 °C 18.9 °C 1012.4 hPa Calm   1.6 km/h 83% 0 mm
10:44 21.9 °C 18.9 °C 1012.4 hPa Calm   1.6 km/h 83% 0 mm
10:49 21.9 °C 18.7 °C 1012.4 hPa SW 1.6 km/h 6.4 km/h 82% 0 mm
10:54 22 °C 18.8 °C 1012.1 hPa SW 1.6 km/h 6.4 km/h 82% 0 mm
10:59 22 °C 18.4 °C 1012.1 hPa Calm   6.4 km/h 80% 0 mm
11:04 22 °C 18.6 °C 1012.1 hPa Calm   1.6 km/h 81% 0 mm
11:09 22.1 °C 18.7 °C 1012.1 hPa Calm   1.6 km/h 81% 0 mm
11:14 22.2 °C 18.6 °C 1012.1 hPa SW 1.6 km/h 4.8 km/h 80% 0 mm
11:19 22.3 °C 18.7 °C 1012.4 hPa Calm   4.8 km/h 80% 0 mm
11:24 22.5 °C 18.9 °C 1012.4 hPa Calm   1.6 km/h 80% 0 mm
11:29 23.1 °C 19.6 °C 1012.4 hPa Calm   1.6 km/h 81% 0 mm
11:34 23.6 °C 19.3 °C 1012.1 hPa Calm     77% 0 mm
11:39 24.3 °C 20.2 °C 1012.1 hPa SW 1.6 km/h 9.7 km/h 78% 0 mm
11:44 24.7 °C 19.8 °C 1012.1 hPa Calm   9.7 km/h 74% 0 mm
11:49 25.1 °C 19.7 °C 1012.1 hPa Calm   9.7 km/h 72% 0 mm
11:54 25.4 °C 20.5 °C 1012.1 hPa Calm   6.4 km/h 74% 0 mm
11:59 25.6 °C 20.2 °C 1012.1 hPa Calm   1.6 km/h 72% 0 mm
12:04 25.8 °C 20.1 °C 1012.1 hPa Calm   4.8 km/h 71% 0 mm
12:09 25.9 °C 20.7 °C 1012.1 hPa Calm   4.8 km/h 73% 0 mm
12:14 26.3 °C 20.4 °C 1011.7 hPa Calm     70% 0 mm
12:19 26.4 °C 20.5 °C 1011.7 hPa Calm     70% 0 mm
12:24 26.6 °C 19.7 °C 1011.7 hPa Calm     66% 0 mm
12:29 26.4 °C 19.8 °C 1011.7 hPa Calm     67% 0 mm
12:34 26.3 °C 19.7 °C 1011.4 hPa ENE 3.2 km/h 6.4 km/h 67% 0 mm
12:39 26.1 °C 20.4 °C 1011.7 hPa Calm   8 km/h 71% 0 mm
12:44 25.9 °C 20.1 °C 1011.7 hPa Calm   8 km/h 70% 0 mm
12:49 25.9 °C 20.3 °C 1011.7 hPa Calm   6.4 km/h 71% 0 mm
12:54 25.9 °C 19.8 °C 1011.7 hPa NE 4.8 km/h 8 km/h 69% 0 mm
12:59 25.9 °C 20.3 °C 1011.4 hPa East 1.6 km/h 8 km/h 71% 0 mm
13:04 26.4 °C 20.6 °C 1011.4 hPa Calm   6.4 km/h 70% 0 mm
13:09 26.7 °C 20.6 °C 1011.4 hPa Calm   1.6 km/h 69% 0 mm
13:14 26.9 °C 20 °C 1011.4 hPa Calm   1.6 km/h 66% 0 mm
13:19 27.2 °C 20.5 °C 1011.1 hPa Calm   1.6 km/h 67% 0 mm
13:24 27.2 °C 20 °C 1011.1 hPa Calm   1.6 km/h 65% 0 mm
13:29 26.9 °C 20 °C 1011.1 hPa Calm   1.6 km/h 66% 0 mm
13:34 26.8 °C 19.9 °C 1011.1 hPa Calm     66% 0 mm
13:39 26.6 °C 19.5 °C 1011.1 hPa Calm   1.6 km/h 65% 0 mm
13:44 26.3 °C 19.2 °C 1011.1 hPa Calm   1.6 km/h 65% 0 mm
13:49 26 °C 19.9 °C 1011.1 hPa Calm   1.6 km/h 69% 0 mm
13:54 25.9 °C 19.8 °C 1010.7 hPa Calm   1.6 km/h 69% 0 mm
13:59 25.9 °C 19.8 °C 1011.1 hPa Calm   1.6 km/h 69% 0 mm
14:04 26.3 °C 20.2 °C 1011.1 hPa Calm   1.6 km/h 69% 0 mm
14:09 26.6 °C 19.9 °C 1010.7 hPa Calm   1.6 km/h 67% 0 mm
14:14 26.7 °C 19.8 °C 1010.7 hPa SE 1.6 km/h 4.8 km/h 66% 0 mm
14:19 26.5 °C 19.6 °C 1010.7 hPa Calm   4.8 km/h 66% 0 mm
14:24 26.4 °C 20.6 °C 1010.7 hPa Calm   1.6 km/h 70% 0 mm
14:29 26.3 °C 20.7 °C 1010.7 hPa Calm   1.6 km/h 71% 0 mm
14:34 26.2 °C 20.3 °C 1010.7 hPa ENE 1.6 km/h 6.4 km/h 70% 0 mm
14:39 25.9 °C 19.8 °C 1010.7 hPa Calm   11.3 km/h 69% 0 mm
14:44 25.7 °C 20 °C 1010.7 hPa NE 1.6 km/h 11.3 km/h 71% 0 mm
14:49 25.6 °C 20.4 °C 1010.7 hPa Calm   4.8 km/h 73% 0 mm
14:54 25.4 °C 20.1 °C 1010.7 hPa Calm     72% 0 mm
14:59 25.3 °C 20.4 °C 1010.7 hPa Calm   3.2 km/h 74% 0 mm
15:04 25.2 °C 20.7 °C 1010.7 hPa Calm   3.2 km/h 76% 0 mm
15:09 25 °C 20.5 °C 1010.7 hPa Calm     76% 0 mm
15:14 24.9 °C 20.8 °C 1010.7 hPa Calm     78% 0 mm
15:19 24.7 °C 20.6 °C 1010.7 hPa Calm     78% 0 mm
15:24 24.6 °C 20.7 °C 1010.7 hPa Calm     79% 0 mm
15:29 24.3 °C 20.7 °C 1011.1 hPa Calm     80% 0 mm
15:34 24.1 °C 20.7 °C 1011.1 hPa Calm     81% 0 mm
15:40 23.8 °C 20.6 °C 1011.1 hPa Calm     82% 0.3 mm
15:49 23.2 °C 20.5 °C 1011.4 hPa Calm   3.2 km/h 85% 0.5 mm
15:54 22.9 °C 20.2 °C 1011.1 hPa WSW 3.2 km/h 6.4 km/h 85% 1 mm
15:59 22.7 °C 20.2 °C 1010.7 hPa Calm   6.4 km/h 86% 1.5 mm
16:04 22.7 °C 20.6 °C 1010.7 hPa Calm   4.8 km/h 88% 1.8 mm
16:09 22.7 °C 20.6 °C 1010.4 hPa North 1.6 km/h 4.8 km/h 88% 2 mm
16:14 22.7 °C 20.8 °C 1010.4 hPa Calm   4.8 km/h 89% 2 mm
16:19 22.8 °C 21.1 °C 1010.4 hPa Calm     90% 2 mm
16:24 22.8 °C 20.9 °C 1010.4 hPa Calm     89% 2 mm
16:29 22.9 °C 21.2 °C 1010.7 hPa Calm     90% 2 mm
16:34 22.9 °C 21 °C 1010.4 hPa Calm   1.6 km/h 89% 2 mm
16:39 22.8 °C 20.9 °C 1010.4 hPa Calm   1.6 km/h 89% 2 mm
16:44 23 °C 21.1 °C 1010.7 hPa Calm     89% 2 mm
16:49 23.1 °C 21.2 °C 1010.7 hPa Calm     89% 2 mm
16:54 23.1 °C 21.2 °C 1010.7 hPa Calm     89% 2 mm
16:59 23.3 °C 21.4 °C 1010.7 hPa Calm   1.6 km/h 89% 2 mm
17:04 23.3 °C 21.4 °C 1010.7 hPa Calm   1.6 km/h 89% 2 mm
17:09 23.2 °C 21.3 °C 1010.4 hPa Calm     89% 2 mm
17:14 23.1 °C 21 °C 1010.7 hPa Calm   4.8 km/h 88% 2 mm
17:19 23.1 °C 21 °C 1010.4 hPa Calm   4.8 km/h 88% 2 mm
17:24 23 °C 20.9 °C 1010.4 hPa Calm     88% 2 mm
17:29 23 °C 21.1 °C 1010.4 hPa Calm     89% 2 mm
17:34 22.9 °C 21 °C 1010.4 hPa Calm   1.6 km/h 89% 2 mm
17:39 22.7 °C 20.8 °C 1010.4 hPa Calm   1.6 km/h 89% 2 mm
17:44 22.6 °C 20.7 °C 1010.4 hPa Calm   1.6 km/h 89% 2 mm
17:49 22.3 °C 20.4 °C 1010.7 hPa Calm   3.2 km/h 89% 2 mm
17:54 22.2 °C 20.3 °C 1010.7 hPa Calm   3.2 km/h 89% 2 mm
17:59 22.2 °C 20.5 °C 1010.7 hPa Calm     90% 2 mm
18:04 22.2 °C 20.5 °C 1010.7 hPa Calm     90% 2 mm
18:09 22.2 °C 20.4 °C 1010.7 hPa Calm     90% 2 mm
18:19 22.1 °C 20.3 °C 1011.1 hPa Calm     90% 2 mm
18:24 22.1 °C 20.5 °C 1011.1 hPa Calm     91% 2 mm
18:29 22.1 °C 20.5 °C 1011.1 hPa Calm     91% 2 mm
18:34 22.1 °C 20.5 °C 1011.1 hPa Calm     91% 2 mm
18:39 22 °C 20.4 °C 1010.7 hPa Calm     91% 2 mm
18:44 22.1 °C 20.5 °C 1010.7 hPa Calm     91% 2 mm
18:49 22.1 °C 20.5 °C 1010.7 hPa Calm     91% 2 mm
18:54 22 °C 20.4 °C 1010.7 hPa Calm     91% 2 mm
18:59 21.9 °C 20.6 °C 1011.1 hPa Calm     92% 2 mm
19:04 21.8 °C 20.5 °C 1011.1 hPa Calm     92% 2 mm
19:09 21.8 °C 20.2 °C 1011.1 hPa Calm     91% 2 mm
19:14 21.6 °C 20.1 °C 1011.1 hPa Calm     91% 2 mm
19:19 21.5 °C 19.9 °C 1010.7 hPa Calm     91% 2 mm
19:24 21.4 °C 20.1 °C 1010.7 hPa Calm     92% 2 mm
19:29 21.3 °C 19.7 °C 1010.7 hPa Calm     91% 2 mm
19:34 21.2 °C 19.7 °C 1010.7 hPa Calm   1.6 km/h 91% 2 mm
19:39 21.1 °C 19.8 °C 1010.7 hPa Calm   1.6 km/h 92% 2 mm
19:44 21 °C 19.7 °C 1010.7 hPa Calm     92% 2 mm
19:49 20.9 °C 19.4 °C 1010.7 hPa Calm     91% 2 mm
19:54 20.8 °C 19.5 °C 1010.7 hPa Calm     92% 2 mm
19:59 20.8 °C 19.4 °C 1011.1 hPa Calm     92% 2 mm
20:04 20.8 °C 19.5 °C 1010.7 hPa Calm     92% 2 mm
20:09 20.8 °C 19.5 °C 1011.1 hPa Calm   4.8 km/h 92% 2 mm
20:14 20.8 °C 19.4 °C 1011.1 hPa Calm   4.8 km/h 92% 2 mm
20:19 20.8 °C 19.4 °C 1011.1 hPa Calm   6.4 km/h 92% 2 mm
20:24 20.7 °C 19.5 °C 1011.4 hPa Calm   6.4 km/h 93% 2 mm
20:29 20.7 °C 19.3 °C 1011.4 hPa Calm   1.6 km/h 92% 2 mm
20:34 20.6 °C 19.2 °C 1011.1 hPa Calm   3.2 km/h 92% 2 mm
20:39 20.5 °C 19.2 °C 1011.1 hPa Calm   6.4 km/h 92% 2.3 mm
20:44 20.4 °C 19.1 °C 1011.1 hPa Calm   6.4 km/h 92% 2.8 mm
20:49 20.4 °C 19.2 °C 1011.1 hPa Calm   1.6 km/h 93% 3.3 mm
20:54 20.3 °C 19.2 °C 1011.4 hPa Calm     93% 3.8 mm
20:59 20.3 °C 18.9 °C 1011.4 hPa Calm   4.8 km/h 92% 4.8 mm
21:04 20.2 °C 19.1 °C 1011.1 hPa Calm   4.8 km/h 93% 5.8 mm
21:09 20.2 °C 19.1 °C 1011.1 hPa Calm   1.6 km/h 93% 6.4 mm
21:14 20.2 °C 19 °C 1011.1 hPa Calm   1.6 km/h 93% 6.6 mm
21:19 20.2 °C 19 °C 1010.7 hPa Calm   1.6 km/h 93% 6.6 mm
21:24 20.2 °C 19 °C 1010.7 hPa Calm     93% 6.6 mm
21:29 20.2 °C 19 °C 1010.7 hPa Calm     93% 6.6 mm
21:34 20.2 °C 19.2 °C 1010.7 hPa Calm     94% 6.6 mm
21:39 20.2 °C 19.2 °C 1010.7 hPa Calm     94% 6.6 mm
21:44 20.2 °C 19.2 °C 1010.7 hPa Calm     94% 6.6 mm
21:49 20.1 °C 19.1 °C 1010.7 hPa Calm     94% 6.6 mm
21:54 20.1 °C 19.1 °C 1010.7 hPa Calm     94% 6.9 mm
21:59 20.1 °C 19.1 °C 1010.7 hPa Calm     94% 6.9 mm
22:04 20 °C 19 °C 1010.7 hPa Calm     94% 6.9 mm
22:09 19.9 °C 18.9 °C 1010.7 hPa Calm     94% 6.9 mm
22:14 19.8 °C 18.8 °C 1010.7 hPa Calm     94% 6.9 mm
22:19 19.7 °C 18.7 °C 1010.7 hPa Calm     94% 6.9 mm
22:24 19.7 °C 18.7 °C 1010.7 hPa Calm     94% 6.9 mm
22:29 19.6 °C 18.6 °C 1010.4 hPa Calm     94% 6.9 mm
22:34 19.7 °C 18.7 °C 1010.7 hPa Calm     94% 6.9 mm
22:39 19.6 °C 18.6 °C 1010.7 hPa Calm     94% 6.9 mm
22:44 19.6 °C 18.6 °C 1010.7 hPa Calm     94% 6.9 mm
22:49 19.5 °C 18.5 °C 1010.7 hPa Calm     94% 6.9 mm
22:54 19.4 °C 18.6 °C 1010.7 hPa Calm     95% 6.9 mm
22:59 19.3 °C 18.3 °C 1010.4 hPa Calm     94% 6.9 mm
23:04 19.3 °C 18.4 °C 1010.4 hPa Calm     95% 6.9 mm
23:09 19.3 °C 18.4 °C 1010.4 hPa Calm     95% 6.9 mm
23:14 19.3 °C 18.4 °C 1010.4 hPa Calm     95% 6.9 mm
23:19 19.3 °C 18.5 °C 1010.4 hPa Calm     95% 6.9 mm
23:24 19.3 °C 18.4 °C 1010.4 hPa Calm     95% 6.9 mm
23:29 19.3 °C 18.4 °C 1010.4 hPa Calm     95% 6.9 mm
23:34 19.3 °C 18.4 °C 1010.4 hPa Calm     95% 6.9 mm
23:39 19.3 °C 18.4 °C 1010 hPa Calm     95% 6.9 mm
23:44 19.3 °C 18.4 °C 1010 hPa Calm     95% 6.9 mm
23:49 19.3 °C 18.7 °C 1010 hPa Calm     96% 6.9 mm
23:54 19.4 °C 18.7 °C 1009.7 hPa Calm     96% 6.9 mm
23:59 19.4 °C 18.7 °C 1009.7 hPa Calm     96% 6.9 mm
Westford Weather
Compliments of Weather Underground

 
 
Current Radar Loop:

Copyright © WestfordWeather.net 2007-2014. All rights reserved.